Time;durP1;ratioP1;P1;durP2;ratioP2;P2;SDS_P1;SDS_P2;PMS_P1;PMS_P2;Temp;Humidity;BMP_temperature;BMP_pressure;BME280_temperature;BME280_humidity;BME280_pressure;Samples;Min_cycle;Max_cycle;Signal;HPM_P1;HPM_P2
2022/09/08 00:00:43;;;;;;;13.40;2.50;;;;;;;;;;5025809;28;20132;-65
2022/09/08 00:03:11;;;;;;;12.32;2.65;;;;;;;;;;5021480;28;21197;-65
2022/09/08 00:05:40;;;;;;;12.55;2.67;;;;;;;;;;5023049;28;20104;-65
2022/09/08 00:08:09;;;;;;;11.80;2.50;;;;;;;;;;5020259;28;20055;-65
2022/09/08 00:10:36;;;;;;;9.55;2.10;;;;;;;;;;5031474;28;20468;-65
2022/09/08 00:13:03;;;;;;;8.88;2.20;;;;;;;;;;4998971;28;20539;-64
2022/09/08 00:15:29;;;;;;;12.85;2.72;;;;;;;;;;5011307;28;20510;-65
2022/09/08 00:17:55;;;;;;;12.25;2.78;;;;;;;;;;5032480;28;20103;-64
2022/09/08 00:20:22;;;;;;;10.25;2.08;;;;;;;;;;5030484;28;20467;-63
2022/09/08 00:22:48;;;;;;;11.38;2.22;;;;;;;;;;5025208;28;20030;-63
2022/09/08 00:25:14;;;;;;;11.20;2.42;;;;;;;;;;5007293;28;20056;-64
2022/09/08 00:27:40;;;;;;;8.05;2.00;;;;;;;;;;5030581;28;20315;-64
2022/09/08 00:30:06;;;;;;;11.15;2.40;;;;;;;;;;5022122;28;20495;-64
2022/09/08 00:32:32;;;;;;;13.77;2.35;;;;;;;;;;5026860;28;20865;-64
2022/09/08 00:35:00;;;;;;;9.25;2.20;;;;;;;;;;4998014;28;20152;-64
2022/09/08 00:37:28;;;;;;;9.77;2.28;;;;;;;;;;5010297;28;20523;-64
2022/09/08 00:39:54;;;;;;;10.10;2.10;;;;;;;;;;5021935;28;20128;-64
2022/09/08 00:42:21;;;;;;;8.07;2.22;;;;;;;;;;5026248;28;20047;-64
2022/09/08 00:44:50;;;;;;;12.52;2.55;;;;;;;;;;5020307;28;20597;-64
2022/09/08 00:47:30;;;;;;;11.90;2.28;;;;;;;;;;5009912;28;20028;-64
2022/09/08 00:50:08;;;;;;;9.57;1.95;;;;;;;;;;4997538;28;20040;-64
2022/09/08 00:52:39;;;;;;;11.05;2.35;;;;;;;;;;5022832;28;20048;-64
2022/09/08 00:55:07;;;;;;;9.30;2.15;;;;;;;;;;5025327;28;20441;-64
2022/09/08 00:57:34;;;;;;;9.93;2.10;;;;;;;;;;5011801;28;20163;-64
2022/09/08 01:00:00;;;;;;;9.40;2.20;;;;;;;;;;5025721;28;20051;-65
2022/09/08 01:02:26;;;;;;;12.57;2.58;;;;;;;;;;5023248;28;20042;-64
2022/09/08 01:04:58;;;;;;;10.35;2.55;;;;;;;;;;5005802;28;20025;-64
2022/09/08 01:13:05;;;;;;;9.82;2.25;;;;;;;;;;5018829;28;20052;-64
2022/09/08 01:15:31;;;;;;;9.85;2.20;;;;;;;;;;5024261;28;20037;-64
2022/09/08 01:17:58;;;;;;;9.93;2.17;;;;;;;;;;5023447;28;20293;-64
2022/09/08 01:20:31;;;;;;;11.55;2.10;;;;;;;;;;5022745;28;20448;-64
2022/09/08 01:22:57;;;;;;;10.90;2.45;;;;;;;;;;5019524;28;20024;-64
2022/09/08 01:25:30;;;;;;;9.30;2.17;;;;;;;;;;5024089;28;20160;-64
2022/09/08 01:28:02;;;;;;;13.25;2.90;;;;;;;;;;5021149;28;20039;-64
2022/09/08 01:30:29;;;;;;;14.55;2.95;;;;;;;;;;5024551;28;20050;-64
2022/09/08 01:32:55;;;;;;;11.20;2.33;;;;;;;;;;5024651;28;20025;-64
2022/09/08 01:35:31;;;;;;;13.13;2.50;;;;;;;;;;5026137;28;20020;-64
2022/09/08 01:37:57;;;;;;;11.57;2.60;;;;;;;;;;5028152;28;20032;-64
2022/09/08 01:40:24;;;;;;;9.98;2.28;;;;;;;;;;5028955;28;20028;-64
2022/09/08 01:42:50;;;;;;;11.07;2.50;;;;;;;;;;5025122;28;20112;-64
2022/09/08 01:45:16;;;;;;;10.35;2.30;;;;;;;;;;5027183;28;20048;-64
2022/09/08 01:47:43;;;;;;;9.00;1.90;;;;;;;;;;5028293;28;20021;-64
2022/09/08 01:50:09;;;;;;;12.20;2.40;;;;;;;;;;5022927;28;20035;-67
2022/09/08 01:52:35;;;;;;;8.98;2.55;;;;;;;;;;5029801;28;20132;-68
2022/09/08 01:55:02;;;;;;;8.88;2.13;;;;;;;;;;5023659;28;20494;-66
2022/09/08 01:57:28;;;;;;;10.15;2.20;;;;;;;;;;5027932;28;20160;-67
2022/09/08 01:59:54;;;;;;;11.65;2.38;;;;;;;;;;5033568;28;20033;-66
2022/09/08 02:02:20;;;;;;;11.25;2.35;;;;;;;;;;5026909;28;20030;-66
2022/09/08 02:04:46;;;;;;;12.35;2.65;;;;;;;;;;5010146;28;20025;-64
2022/09/08 02:07:12;;;;;;;13.48;2.20;;;;;;;;;;5007065;28;20517;-65
2022/09/08 02:09:38;;;;;;;11.05;2.50;;;;;;;;;;5022958;28;20135;-65
2022/09/08 02:12:05;;;;;;;12.43;2.60;;;;;;;;;;5023842;28;20514;-65
2022/09/08 02:14:31;;;;;;;8.27;2.00;;;;;;;;;;5011591;28;20035;-65
2022/09/08 02:16:57;;;;;;;11.25;2.28;;;;;;;;;;5009851;28;20044;-65
2022/09/08 02:19:23;;;;;;;9.38;2.30;;;;;;;;;;5027789;28;20442;-65
2022/09/08 02:21:49;;;;;;;8.63;2.10;;;;;;;;;;5022752;28;20037;-65
2022/09/08 02:24:15;;;;;;;11.23;2.15;;;;;;;;;;5011870;28;20025;-65
2022/09/08 02:26:41;;;;;;;8.13;2.05;;;;;;;;;;5036482;28;20068;-65
2022/09/08 02:29:10;;;;;;;9.73;2.25;;;;;;;;;;5025723;28;20469;-64
2022/09/08 02:31:36;;;;;;;9.63;2.13;;;;;;;;;;5026911;28;20552;-64
2022/09/08 02:34:03;;;;;;;11.45;2.13;;;;;;;;;;5002221;28;20107;-64
2022/09/08 02:36:29;;;;;;;8.50;1.85;;;;;;;;;;5007816;28;20506;-65
2022/09/08 02:38:56;;;;;;;9.65;2.10;;;;;;;;;;5005623;28;20051;-64
2022/09/08 02:41:22;;;;;;;8.57;1.77;;;;;;;;;;5008134;28;20071;-64
2022/09/08 02:43:48;;;;;;;8.52;2.22;;;;;;;;;;5016376;28;20036;-64
2022/09/08 02:46:15;;;;;;;7.60;2.03;;;;;;;;;;5010209;28;20025;-64
2022/09/08 02:48:41;;;;;;;8.55;1.83;;;;;;;;;;5028139;28;20112;-65
2022/09/08 02:51:08;;;;;;;8.52;1.90;;;;;;;;;;5022392;28;20037;-64
2022/09/08 02:53:35;;;;;;;10.00;2.17;;;;;;;;;;5025798;28;20051;-64
2022/09/08 02:56:01;;;;;;;9.45;2.08;;;;;;;;;;5024330;28;20079;-64
2022/09/08 02:58:28;;;;;;;9.10;1.95;;;;;;;;;;5022350;28;20025;-64
2022/09/08 03:00:54;;;;;;;7.00;1.60;;;;;;;;;;5020238;28;20041;-64
2022/09/08 03:03:21;;;;;;;10.43;2.38;;;;;;;;;;5027877;28;20100;-64
2022/09/08 03:05:48;;;;;;;10.50;2.05;;;;;;;;;;5022638;28;20238;-65
2022/09/08 03:08:14;;;;;;;7.97;1.83;;;;;;;;;;5025922;28;20039;-65
2022/09/08 03:10:41;;;;;;;9.18;1.95;;;;;;;;;;5026976;28;20955;-65
2022/09/08 03:13:07;;;;;;;9.27;2.17;;;;;;;;;;5022874;28;20025;-64
2022/09/08 03:15:34;;;;;;;8.57;2.17;;;;;;;;;;5012505;28;20091;-65
2022/09/08 03:18:04;;;;;;;10.07;2.17;;;;;;;;;;5020645;28;20024;-64
2022/09/08 03:20:31;;;;;;;10.02;1.88;;;;;;;;;;5028043;28;20486;-64
2022/09/08 03:22:58;;;;;;;8.70;2.10;;;;;;;;;;5023993;28;20036;-64
2022/09/08 03:25:24;;;;;;;8.00;1.77;;;;;;;;;;5022231;28;20545;-64
2022/09/08 03:27:50;;;;;;;8.73;2.00;;;;;;;;;;5023362;28;20718;-64
2022/09/08 03:30:17;;;;;;;9.43;2.05;;;;;;;;;;5023255;28;20037;-65
2022/09/08 03:32:44;;;;;;;5.68;1.73;;;;;;;;;;5006518;28;20035;-64
2022/09/08 03:35:11;;;;;;;8.32;1.95;;;;;;;;;;5009508;28;20210;-64
2022/09/08 03:37:40;;;;;;;12.50;2.63;;;;;;;;;;5031500;28;20034;-65
2022/09/08 03:40:08;;;;;;;9.07;2.08;;;;;;;;;;5003625;28;20039;-64
2022/09/08 03:42:35;;;;;;;9.52;2.30;;;;;;;;;;5028239;28;20029;-64
2022/09/08 03:45:01;;;;;;;12.48;2.90;;;;;;;;;;5021026;28;20036;-66
2022/09/08 03:47:28;;;;;;;9.95;2.20;;;;;;;;;;5025351;28;20584;-66
2022/09/08 03:49:54;;;;;;;9.40;2.30;;;;;;;;;;5004878;28;20131;-66
2022/09/08 03:52:20;;;;;;;8.60;2.10;;;;;;;;;;5009771;28;20083;-66
2022/09/08 03:54:50;;;;;;;10.55;2.60;;;;;;;;;;5023674;28;20068;-66
2022/09/08 03:57:17;;;;;;;11.93;2.60;;;;;;;;;;5026312;28;20055;-66
2022/09/08 03:59:44;;;;;;;11.93;2.10;;;;;;;;;;5011449;28;20039;-66
2022/09/08 04:02:10;;;;;;;8.95;2.17;;;;;;;;;;5017633;28;20055;-66
2022/09/08 04:04:37;;;;;;;10.60;2.28;;;;;;;;;;5024197;28;20025;-66
2022/09/08 04:07:04;;;;;;;10.25;2.47;;;;;;;;;;5023304;28;20446;-66
2022/09/08 04:09:30;;;;;;;11.88;2.33;;;;;;;;;;5026075;28;20016;-66
2022/09/08 04:11:56;;;;;;;7.90;1.98;;;;;;;;;;5024953;28;20087;-66
2022/09/08 04:14:22;;;;;;;9.25;2.20;;;;;;;;;;5023140;28;20031;-66
2022/09/08 04:16:48;;;;;;;9.48;1.98;;;;;;;;;;5021231;28;20025;-68
2022/09/08 04:19:15;;;;;;;9.20;2.08;;;;;;;;;;5008098;28;20531;-66
2022/09/08 04:21:41;;;;;;;12.25;2.10;;;;;;;;;;5026042;28;20575;-66
2022/09/08 04:24:07;;;;;;;9.77;1.92;;;;;;;;;;5023311;28;20053;-66
2022/09/08 04:26:34;;;;;;;7.28;1.67;;;;;;;;;;5026083;28;20021;-66
2022/09/08 04:29:01;;;;;;;8.75;1.90;;;;;;;;;;5023486;28;20051;-66
2022/09/08 04:31:27;;;;;;;9.13;2.20;;;;;;;;;;5024266;28;20028;-66
2022/09/08 04:33:53;;;;;;;10.98;2.17;;;;;;;;;;5018535;28;20554;-66
2022/09/08 04:36:20;;;;;;;10.52;2.08;;;;;;;;;;5023603;28;20182;-66
2022/09/08 04:38:47;;;;;;;7.82;2.10;;;;;;;;;;5025802;28;20545;-66
2022/09/08 04:41:15;;;;;;;7.60;1.67;;;;;;;;;;5028187;28;20037;-66
2022/09/08 04:43:42;;;;;;;6.22;1.55;;;;;;;;;;5005849;28;20484;-65
2022/09/08 04:46:10;;;;;;;7.18;1.63;;;;;;;;;;5023669;28;20125;-65
2022/09/08 04:48:37;;;;;;;9.40;1.88;;;;;;;;;;5022875;28;20191;-65
2022/09/08 04:51:04;;;;;;;7.45;1.92;;;;;;;;;;5017903;28;20253;-65
2022/09/08 04:53:31;;;;;;;6.78;1.48;;;;;;;;;;5020811;28;20068;-65
2022/09/08 04:55:58;;;;;;;5.78;1.30;;;;;;;;;;5022607;28;20045;-65
2022/09/08 04:58:24;;;;;;;7.60;1.70;;;;;;;;;;5024219;28;20040;-66
2022/09/08 05:00:51;;;;;;;7.20;1.80;;;;;;;;;;5024003;28;20124;-65
2022/09/08 05:03:17;;;;;;;8.25;1.83;;;;;;;;;;5024555;28;20036;-65
2022/09/08 05:05:43;;;;;;;6.53;1.45;;;;;;;;;;5021305;28;20485;-65
2022/09/08 05:08:09;;;;;;;6.18;1.40;;;;;;;;;;5024967;28;20376;-65
2022/09/08 05:10:35;;;;;;;7.05;1.70;;;;;;;;;;5030515;28;20452;-65
2022/09/08 05:13:01;;;;;;;6.32;1.60;;;;;;;;;;5024550;28;20040;-65
2022/09/08 05:15:28;;;;;;;6.40;1.70;;;;;;;;;;5032076;28;20025;-65
2022/09/08 05:17:54;;;;;;;8.15;1.60;;;;;;;;;;5010964;28;20029;-64
2022/09/08 05:20:21;;;;;;;7.20;1.50;;;;;;;;;;5014132;28;20559;-65
2022/09/08 05:22:47;;;;;;;6.90;1.80;;;;;;;;;;5008335;28;20021;-65
2022/09/08 05:25:13;;;;;;;5.07;1.50;;;;;;;;;;5027062;28;20246;-65
2022/09/08 05:27:39;;;;;;;9.27;1.70;;;;;;;;;;5027362;28;20297;-65
2022/09/08 05:30:06;;;;;;;7.63;1.70;;;;;;;;;;5023397;28;21178;-66
2022/09/08 05:32:34;;;;;;;6.60;1.60;;;;;;;;;;5028387;28;20481;-65
2022/09/08 05:35:00;;;;;;;7.50;1.88;;;;;;;;;;5022543;28;20032;-65
2022/09/08 05:37:29;;;;;;;8.55;2.13;;;;;;;;;;5026891;28;20037;-65
2022/09/08 05:39:55;;;;;;;9.85;1.98;;;;;;;;;;5026394;28;20154;-65
2022/09/08 05:42:21;;;;;;;9.13;2.35;;;;;;;;;;5012877;28;20446;-65
2022/09/08 05:44:48;;;;;;;8.90;2.00;;;;;;;;;;5028205;28;20032;-65
2022/09/08 05:47:14;;;;;;;8.88;2.20;;;;;;;;;;5031713;28;20030;-65
2022/09/08 05:49:40;;;;;;;7.40;1.90;;;;;;;;;;5012301;28;20568;-65
2022/09/08 05:52:06;;;;;;;9.05;1.90;;;;;;;;;;5028053;28;20685;-65
2022/09/08 05:54:32;;;;;;;7.05;1.73;;;;;;;;;;5009259;28;20407;-65
2022/09/08 05:56:58;;;;;;;11.75;2.10;;;;;;;;;;5007668;28;20482;-65
2022/09/08 05:59:24;;;;;;;9.65;2.60;;;;;;;;;;5007503;28;20134;-65
2022/09/08 06:01:51;;;;;;;8.73;2.40;;;;;;;;;;5006020;28;20113;-65
2022/09/08 06:04:18;;;;;;;9.82;3.25;;;;;;;;;;5008222;28;20041;-65
2022/09/08 06:06:46;;;;;;;11.32;2.78;;;;;;;;;;5009997;28;20017;-65
2022/09/08 06:09:12;;;;;;;11.68;3.03;;;;;;;;;;5008126;28;20450;-65
2022/09/08 06:11:39;;;;;;;11.38;3.90;;;;;;;;;;5016475;28;20656;-65
2022/09/08 06:14:05;;;;;;;13.15;4.40;;;;;;;;;;5010008;28;20112;-65
2022/09/08 06:16:32;;;;;;;13.90;4.53;;;;;;;;;;5013774;28;20036;-65
2022/09/08 06:18:59;;;;;;;16.63;4.03;;;;;;;;;;5013467;28;20475;-65
2022/09/08 06:21:27;;;;;;;14.05;3.50;;;;;;;;;;5017427;28;20712;-65
2022/09/08 06:23:58;;;;;;;17.35;3.72;;;;;;;;;;5010545;28;20020;-65
2022/09/08 06:26:42;;;;;;;12.68;3.03;;;;;;;;;;5014464;28;20026;-65
2022/09/08 06:29:13;;;;;;;18.30;3.22;;;;;;;;;;5009161;28;20088;-65
2022/09/08 06:31:46;;;;;;;10.40;3.05;;;;;;;;;;5014670;28;20036;-65
2022/09/08 06:34:22;;;;;;;12.80;3.10;;;;;;;;;;5014375;28;20550;-65
2022/09/08 06:36:56;;;;;;;13.05;2.90;;;;;;;;;;5005086;28;20021;-65
2022/09/08 06:39:28;;;;;;;18.20;3.03;;;;;;;;;;5011206;28;20052;-65
2022/09/08 06:42:09;;;;;;;14.90;2.70;;;;;;;;;;5007248;28;20033;-65
2022/09/08 06:44:38;;;;;;;9.52;2.15;;;;;;;;;;5013842;28;20107;-65
2022/09/08 06:47:11;;;;;;;10.05;2.63;;;;;;;;;;5007615;28;20025;-65
2022/09/08 06:49:37;;;;;;;10.80;2.50;;;;;;;;;;5009960;28;20041;-65
2022/09/08 06:52:03;;;;;;;9.38;2.30;;;;;;;;;;5011469;28;20087;-65
2022/09/08 06:54:30;;;;;;;12.48;3.15;;;;;;;;;;5008009;28;20412;-65
2022/09/08 06:57:14;;;;;;;12.45;3.60;;;;;;;;;;5009226;28;20035;-65
2022/09/08 06:59:43;;;;;;;13.02;3.45;;;;;;;;;;5010233;28;20037;-65
2022/09/08 07:02:18;;;;;;;12.32;3.33;;;;;;;;;;5008801;28;20047;-65
2022/09/08 07:04:54;;;;;;;13.27;3.22;;;;;;;;;;5014992;28;20025;-65
2022/09/08 07:07:31;;;;;;;11.27;3.67;;;;;;;;;;5012139;28;20056;-65
2022/09/08 07:10:03;;;;;;;15.32;3.50;;;;;;;;;;5012359;28;20033;-65
2022/09/08 07:13:05;;;;;;;11.95;3.10;;;;;;;;;;5007941;28;20025;-65
2022/09/08 07:15:37;;;;;;;11.73;3.25;;;;;;;;;;4936675;28;20066;-65
2022/09/08 07:18:19;;;;;;;12.73;3.47;;;;;;;;;;4934474;28;20041;-65
2022/09/08 07:20:45;;;;;;;11.80;2.70;;;;;;;;;;4937336;28;20035;-65
2022/09/08 07:23:20;;;;;;;14.13;3.33;;;;;;;;;;4934820;28;20585;-64
2022/09/08 07:25:47;;;;;;;13.20;2.47;;;;;;;;;;4934693;28;20122;-65
2022/09/08 07:28:18;;;;;;;11.88;3.00;;;;;;;;;;4936636;28;20030;-65
2022/09/08 07:30:45;;;;;;;9.77;2.75;;;;;;;;;;4935110;28;20087;-65
2022/09/08 07:33:14;;;;;;;12.65;4.25;;;;;;;;;;4939236;28;20414;-65
2022/09/08 07:35:40;;;;;;;13.10;3.45;;;;;;;;;;4937110;28;20027;-65
2022/09/08 07:38:11;;;;;;;12.18;3.15;;;;;;;;;;4930807;28;20580;-65
2022/09/08 07:40:43;;;;;;;9.15;2.70;;;;;;;;;;4942265;28;20601;-65
2022/09/08 07:43:10;;;;;;;11.20;3.30;;;;;;;;;;4933458;28;20035;-65
2022/09/08 07:45:45;;;;;;;10.55;3.38;;;;;;;;;;4924908;28;20034;-65
2022/09/08 07:48:20;;;;;;;12.53;3.10;;;;;;;;;;4934912;28;20466;-66
2022/09/08 07:50:54;;;;;;;13.13;3.13;;;;;;;;;;5004475;28;20206;-65
2022/09/08 07:53:32;;;;;;;11.02;2.65;;;;;;;;;;5020442;28;20052;-65
2022/09/08 07:56:02;;;;;;;10.02;3.50;;;;;;;;;;5027989;28;20029;-65
2022/09/08 07:58:33;;;;;;;12.43;2.88;;;;;;;;;;5031106;28;20039;-65
2022/09/08 08:01:16;;;;;;;10.80;2.75;;;;;;;;;;5019668;28;20513;-65
2022/09/08 08:03:59;;;;;;;9.77;2.88;;;;;;;;;;5029740;28;20051;-67
2022/09/08 08:06:37;;;;;;;10.27;3.13;;;;;;;;;;5032004;28;20016;-65
2022/09/08 08:09:09;;;;;;;8.70;2.92;;;;;;;;;;5023271;28;21316;-65
2022/09/08 08:11:53;;;;;;;10.27;2.90;;;;;;;;;;5032819;28;20083;-65
2022/09/08 08:14:26;;;;;;;11.57;2.42;;;;;;;;;;5009975;28;20184;-65
2022/09/08 08:16:58;;;;;;;11.00;2.30;;;;;;;;;;5028067;28;20500;-64
2022/09/08 08:19:25;;;;;;;10.18;2.45;;;;;;;;;;5035712;28;20044;-64
2022/09/08 08:22:05;;;;;;;13.02;2.42;;;;;;;;;;5029458;28;20041;-64
2022/09/08 08:24:46;;;;;;;9.63;2.30;;;;;;;;;;5033502;28;20534;-64
2022/09/08 08:27:29;;;;;;;9.25;1.77;;;;;;;;;;5015143;28;20443;-64
2022/09/08 08:29:56;;;;;;;9.02;2.20;;;;;;;;;;5026514;28;20056;-64
2022/09/08 08:32:27;;;;;;;13.63;2.60;;;;;;;;;;5032658;28;20024;-64
2022/09/08 08:34:59;;;;;;;11.93;2.35;;;;;;;;;;5023273;28;20037;-65
2022/09/08 08:37:27;;;;;;;10.25;1.90;;;;;;;;;;5030449;28;20033;-64
2022/09/08 08:39:54;;;;;;;8.48;2.00;;;;;;;;;;5030005;28;20032;-64
2022/09/08 08:42:39;;;;;;;9.55;1.92;;;;;;;;;;5015487;28;20107;-65
2022/09/08 08:45:12;;;;;;;7.15;2.08;;;;;;;;;;5025920;28;21341;-65
2022/09/08 08:47:44;;;;;;;8.60;1.95;;;;;;;;;;5029285;28;20462;-65
2022/09/08 08:50:24;;;;;;;9.18;1.80;;;;;;;;;;5021681;28;20482;-64
2022/09/08 08:53:02;;;;;;;10.88;2.20;;;;;;;;;;5028798;28;20033;-64
2022/09/08 08:55:28;;;;;;;8.48;2.28;;;;;;;;;;5031770;28;20033;-65
2022/09/08 08:58:13;;;;;;;6.40;1.83;;;;;;;;;;5026294;28;20029;-65
2022/09/08 09:00:58;;;;;;;8.50;1.90;;;;;;;;;;5030582;28;20087;-66
2022/09/08 09:03:48;;;;;;;7.97;1.90;;;;;;;;;;5026261;28;20085;-66
2022/09/08 09:06:33;;;;;;;7.57;1.73;;;;;;;;;;5026946;28;20029;-67
2022/09/08 09:08:59;;;;;;;8.88;2.10;;;;;;;;;;5026035;28;20517;-66
2022/09/08 09:11:36;;;;;;;7.95;1.70;;;;;;;;;;5026935;28;20033;-66
2022/09/08 09:14:14;;;;;;;14.35;2.22;;;;;;;;;;5023647;28;20034;-67
2022/09/08 09:16:50;;;;;;;12.48;1.92;;;;;;;;;;5028147;28;20032;-64
2022/09/08 09:19:19;;;;;;;8.18;1.70;;;;;;;;;;5027215;28;20475;-66
2022/09/08 09:21:48;;;;;;;11.95;2.00;;;;;;;;;;5032762;28;20033;-66
2022/09/08 09:24:14;;;;;;;10.05;2.10;;;;;;;;;;5034755;28;20025;-66
2022/09/08 09:26:45;;;;;;;5.72;1.67;;;;;;;;;;5028352;28;20127;-64
2022/09/08 09:29:14;;;;;;;7.00;1.58;;;;;;;;;;5033158;28;20237;-66
2022/09/08 09:31:43;;;;;;;5.80;1.40;;;;;;;;;;5027119;28;20025;-64
2022/09/08 09:34:13;;;;;;;5.78;1.70;;;;;;;;;;5024481;28;20031;-67
2022/09/08 09:37:06;;;;;;;7.65;1.70;;;;;;;;;;5028087;28;20025;-64
2022/09/08 09:39:52;;;;;;;8.63;1.90;;;;;;;;;;5029878;28;20052;-64
2022/09/08 09:42:21;;;;;;;7.43;1.60;;;;;;;;;;5015521;28;20037;-66
2022/09/08 09:44:57;;;;;;;7.35;1.75;;;;;;;;;;5021167;28;20388;-66
2022/09/08 09:47:43;;;;;;;9.27;2.22;;;;;;;;;;5011756;28;20396;-66
2022/09/08 09:50:15;;;;;;;16.80;2.20;;;;;;;;;;5025464;28;20063;-66
2022/09/08 09:52:45;;;;;;;8.48;1.75;;;;;;;;;;5028832;28;20075;-66
2022/09/08 09:55:29;;;;;;;8.07;1.75;;;;;;;;;;5032153;28;20051;-66
2022/09/08 09:58:14;;;;;;;8.73;2.05;;;;;;;;;;5030879;28;20039;-66
2022/09/08 10:00:46;;;;;;;9.98;1.90;;;;;;;;;;5017598;28;20035;-66
2022/09/08 10:03:40;;;;;;;7.13;1.60;;;;;;;;;;5037840;28;20368;-66
2022/09/08 10:06:15;;;;;;;6.75;1.45;;;;;;;;;;5028653;28;20034;-65
2022/09/08 10:08:59;;;;;;;8.82;1.63;;;;;;;;;;5009121;28;20536;-66
2022/09/08 10:11:35;;;;;;;6.30;1.30;;;;;;;;;;5016630;28;20879;-66
2022/09/08 10:14:20;;;;;;;7.10;1.40;;;;;;;;;;5026765;28;20037;-66
2022/09/08 10:16:48;;;;;;;6.60;1.40;;;;;;;;;;5032176;28;20025;-66
2022/09/08 10:19:32;;;;;;;10.77;1.60;;;;;;;;;;5032607;28;20048;-66
2022/09/08 10:22:17;;;;;;;6.20;1.60;;;;;;;;;;5031657;28;20052;-66
2022/09/08 10:25:02;;;;;;;10.05;1.52;;;;;;;;;;5033512;28;20024;-66
2022/09/08 10:27:47;;;;;;;9.70;1.90;;;;;;;;;;5031135;28;20411;-66
2022/09/08 10:30:19;;;;;;;6.27;1.63;;;;;;;;;;5037260;28;20593;-66
2022/09/08 10:33:00;;;;;;;6.18;1.48;;;;;;;;;;5014750;28;20029;-66
2022/09/08 10:35:42;;;;;;;4.28;1.27;;;;;;;;;;5035989;28;20063;-67
2022/09/08 10:38:08;;;;;;;8.45;1.40;;;;;;;;;;5029216;28;20036;-67
2022/09/08 10:40:34;;;;;;;8.40;1.35;;;;;;;;;;5011067;28;20632;-66
2022/09/08 10:43:03;;;;;;;6.78;1.25;;;;;;;;;;5024687;28;20028;-67
2022/09/08 10:45:36;;;;;;;5.00;1.05;;;;;;;;;;5015750;28;20263;-66
2022/09/08 10:48:21;;;;;;;7.15;1.25;;;;;;;;;;5027740;28;20130;-66
2022/09/08 10:50:54;;;;;;;9.80;1.70;;;;;;;;;;5027273;28;20216;-65
2022/09/08 10:53:33;;;;;;;7.13;1.30;;;;;;;;;;5033152;28;20419;-66
2022/09/08 10:56:07;;;;;;;8.05;1.42;;;;;;;;;;5025701;28;20044;-67
2022/09/08 10:58:33;;;;;;;6.18;1.35;;;;;;;;;;5028742;28;20588;-67
2022/09/08 11:00:59;;;;;;;4.35;1.17;;;;;;;;;;5027719;28;20553;-66
2022/09/08 11:03:29;;;;;;;7.63;1.40;;;;;;;;;;5030217;28;20033;-67
2022/09/08 11:05:58;;;;;;;7.65;1.40;;;;;;;;;;5011443;28;20035;-67
2022/09/08 11:08:33;;;;;;;5.68;1.30;;;;;;;;;;5031951;28;20382;-66
2022/09/08 11:11:18;;;;;;;6.75;1.60;;;;;;;;;;5027748;28;20021;-66
2022/09/08 11:14:03;;;;;;;9.02;1.48;;;;;;;;;;5027075;28;20827;-69
2022/09/08 11:16:52;;;;;;;9.80;1.42;;;;;;;;;;5012357;28;20086;-66
2022/09/08 11:19:27;;;;;;;5.10;1.42;;;;;;;;;;4947723;28;20055;-66
2022/09/08 11:22:12;;;;;;;6.88;1.55;;;;;;;;;;4942643;28;20041;-67
2022/09/08 11:24:51;;;;;;;7.15;1.80;;;;;;;;;;4947607;28;20337;-67
2022/09/08 11:27:17;;;;;;;8.18;2.00;;;;;;;;;;4945234;28;20548;-67
2022/09/08 11:29:46;;;;;;;10.15;1.73;;;;;;;;;;4944401;28;20144;-67
2022/09/08 11:32:14;;;;;;;8.25;1.95;;;;;;;;;;4944758;28;20202;-66
2022/09/08 11:34:43;;;;;;;7.43;1.80;;;;;;;;;;4926436;28;20126;-67
2022/09/08 11:37:19;;;;;;;7.53;2.00;;;;;;;;;;4941198;28;20169;-66
2022/09/08 11:39:48;;;;;;;10.20;2.03;;;;;;;;;;4929386;28;20571;-66
2022/09/08 11:42:33;;;;;;;8.98;1.95;;;;;;;;;;4944634;28;20058;-67
2022/09/08 11:45:18;;;;;;;8.32;1.88;;;;;;;;;;4942385;28;20437;-65
2022/09/08 11:47:53;;;;;;;7.63;1.92;;;;;;;;;;4945585;28;20382;-65
2022/09/08 11:50:39;;;;;;;8.32;2.13;;;;;;;;;;4929004;28;20556;-64
2022/09/08 11:53:24;;;;;;;8.75;1.83;;;;;;;;;;4925684;28;20402;-65
2022/09/08 11:55:53;;;;;;;8.50;2.00;;;;;;;;;;4961569;28;20140;-64
2022/09/08 11:58:31;;;;;;;8.95;2.10;;;;;;;;;;5007844;28;20028;-64
2022/09/08 12:01:02;;;;;;;5.72;1.50;;;;;;;;;;5006844;28;20045;-64
2022/09/08 12:03:42;;;;;;;8.20;1.92;;;;;;;;;;5009834;28;20029;-65
2022/09/08 12:06:13;;;;;;;8.43;1.98;;;;;;;;;;5005579;28;20141;-64
2022/09/08 12:09:07;;;;;;;8.38;1.80;;;;;;;;;;5008870;28;20160;-64
2022/09/08 12:11:54;;;;;;;7.18;1.98;;;;;;;;;;5014890;28;20026;-63
2022/09/08 12:14:47;;;;;;;6.28;1.77;;;;;;;;;;5010112;28;20022;-63
2022/09/08 12:17:16;;;;;;;9.45;2.00;;;;;;;;;;4905127;28;20094;-63
2022/09/08 12:20:09;;;;;;;9.73;1.73;;;;;;;;;;4916149;28;20043;-64
2022/09/08 12:22:44;;;;;;;8.45;2.15;;;;;;;;;;4859499;29;20663;-65
2022/09/08 12:25:31;;;;;;;9.07;2.10;;;;;;;;;;4858111;29;20518;-65
2022/09/08 12:28:07;;;;;;;9.57;1.52;;;;;;;;;;4856835;29;20048;-64
2022/09/08 12:30:52;;;;;;;7.65;1.70;;;;;;;;;;4862605;29;20064;-64
2022/09/08 12:33:19;;;;;;;;;;;;;;;;;;4861507;29;20052;-63
2022/09/08 12:35:46;;;;;;;10.98;2.20;;;;;;;;;;4862427;29;20326;-65
2022/09/08 12:38:21;;;;;;;6.90;1.55;;;;;;;;;;4861665;29;20521;-64
2022/09/08 12:41:05;;;;;;;7.70;1.60;;;;;;;;;;4841591;29;20517;-65
2022/09/08 12:43:39;;;;;;;9.55;1.60;;;;;;;;;;4858462;29;20033;-63
2022/09/08 12:46:25;;;;;;;10.27;1.80;;;;;;;;;;4861233;29;20755;-65
2022/09/08 12:48:55;;;;;;;10.32;1.90;;;;;;;;;;4859305;29;20700;-69
2022/09/08 12:51:26;;;;;;;10.95;1.80;;;;;;;;;;4864190;29;20489;-63
2022/09/08 12:53:58;;;;;;;12.00;1.98;;;;;;;;;;4875877;28;20235;-63
2022/09/08 12:56:25;;;;;;;10.63;2.13;;;;;;;;;;4943258;28;20045;-63
2022/09/08 12:59:13;;;;;;;10.23;2.30;;;;;;;;;;4960630;28;20461;-63
2022/09/08 13:01:43;;;;;;;8.00;1.98;;;;;;;;;;5008307;28;20056;-63
2022/09/08 13:04:32;;;;;;;9.95;2.10;;;;;;;;;;5003652;28;20029;-65
2022/09/08 13:07:04;;;;;;;11.68;2.10;;;;;;;;;;4997701;28;20060;-64
2022/09/08 13:09:33;;;;;;;10.55;1.92;;;;;;;;;;5016364;28;20519;-63
2022/09/08 13:12:11;;;;;;;9.15;1.88;;;;;;;;;;5011341;28;20037;-63
2022/09/08 13:14:56;;;;;;;7.65;1.63;;;;;;;;;;5015097;28;20084;-64
2022/09/08 13:17:25;;;;;;;10.18;2.20;;;;;;;;;;5014326;28;20039;-63
2022/09/08 13:19:57;;;;;;;6.65;1.67;;;;;;;;;;5006405;28;20060;-64
2022/09/08 13:22:38;;;;;;;8.60;2.17;;;;;;;;;;5012027;28;20373;-64
2022/09/08 13:25:24;;;;;;;7.85;1.77;;;;;;;;;;5007305;28;20030;-65
2022/09/08 13:28:09;;;;;;;7.32;1.60;;;;;;;;;;4973186;28;20408;-66
2022/09/08 13:30:35;;;;;;;;;;;;;;;;;;5008619;28;20291;-66
2022/09/08 13:33:07;;;;;;;8.90;2.30;;;;;;;;;;5006116;28;20956;-64
2022/09/08 13:35:42;;;;;;;8.15;2.10;;;;;;;;;;5011607;28;20033;-64
2022/09/08 13:38:11;;;;;;;9.93;2.17;;;;;;;;;;5007125;28;20037;-62
2022/09/08 13:40:37;;;;;;;9.13;1.98;;;;;;;;;;5012407;28;20029;-65
2022/09/08 13:43:16;;;;;;;8.45;1.70;;;;;;;;;;5005684;28;20102;-65
2022/09/08 13:45:42;;;;;;;13.57;2.20;;;;;;;;;;5016724;28;20315;-69
2022/09/08 13:48:23;;;;;;;9.55;2.10;;;;;;;;;;5012505;28;20224;-66
2022/09/08 13:51:01;;;;;;;9.02;2.17;;;;;;;;;;5009868;28;20135;-69
2022/09/08 13:53:33;;;;;;;9.98;1.90;;;;;;;;;;5021090;28;20135;-69
2022/09/08 13:56:05;;;;;;;7.32;1.73;;;;;;;;;;5030711;28;20111;-68
2022/09/08 13:58:31;;;;;;;9.02;1.95;;;;;;;;;;5010637;28;20040;-64
2022/09/08 14:01:04;;;;;;;9.70;1.90;;;;;;;;;;5027502;28;20032;-66
2022/09/08 14:03:32;;;;;;;8.57;2.00;;;;;;;;;;5032859;28;20164;-64
2022/09/08 14:05:58;;;;;;;11.02;1.90;;;;;;;;;;5026556;28;20295;-67
2022/09/08 14:08:35;;;;;;;9.23;1.90;;;;;;;;;;5034914;28;20029;-66
2022/09/08 14:11:23;;;;;;;10.25;2.13;;;;;;;;;;5026508;28;20024;-67
2022/09/08 14:13:49;;;;;;;7.47;1.75;;;;;;;;;;5030222;28;20033;-66
2022/09/08 14:16:33;;;;;;;10.75;2.00;;;;;;;;;;5013550;28;20025;-65
2022/09/08 14:19:16;;;;;;;11.30;2.22;;;;;;;;;;5022002;28;20024;-65
2022/09/08 14:21:55;;;;;;;8.20;2.08;;;;;;;;;;5011819;28;20043;-65
2022/09/08 14:24:35;;;;;;;8.57;1.80;;;;;;;;;;5030716;28;20123;-65
2022/09/08 14:27:06;;;;;;;8.95;1.98;;;;;;;;;;5026168;28;20029;-65
2022/09/08 14:29:32;;;;;;;6.82;1.75;;;;;;;;;;5027464;28;20024;-65
2022/09/08 14:32:17;;;;;;;11.98;1.85;;;;;;;;;;5026297;28;20029;-65
2022/09/08 14:34:59;;;;;;;7.15;1.73;;;;;;;;;;5027638;28;20396;-65
2022/09/08 14:37:30;;;;;;;6.13;1.33;;;;;;;;;;5030777;28;20522;-65
2022/09/08 14:40:14;;;;;;;7.18;1.45;;;;;;;;;;5029218;28;20550;-66
2022/09/08 14:42:40;;;;;;;7.93;1.50;;;;;;;;;;5033281;28;20041;-66
2022/09/08 14:45:18;;;;;;;6.75;1.60;;;;;;;;;;5031714;28;20730;-65
2022/09/08 14:48:06;;;;;;;6.93;1.50;;;;;;;;;;5018960;28;20453;-65
2022/09/08 14:50:54;;;;;;;10.68;2.13;;;;;;;;;;5009427;28;20035;-66
2022/09/08 14:53:23;;;;;;;6.90;1.50;;;;;;;;;;5031357;28;20398;-65
2022/09/08 14:56:08;;;;;;;16.40;3.00;;;;;;;;;;5008811;28;20032;-65
2022/09/08 14:58:47;;;;;;;24.63;3.63;;;;;;;;;;5033109;28;20216;-65
2022/09/08 15:01:41;;;;;;;23.58;3.65;;;;;;;;;;5035194;28;20127;-65
2022/09/08 15:04:10;;;;;;;12.20;2.90;;;;;;;;;;5006246;28;21010;-65
2022/09/08 15:06:37;;;;;;;10.48;2.40;;;;;;;;;;5023551;28;20331;-65
2022/09/08 15:09:27;;;;;;;12.63;2.50;;;;;;;;;;5022626;28;20025;-65
2022/09/08 15:11:56;;;;;;;9.07;1.88;;;;;;;;;;5021100;28;20079;-65